Data

From:  To:  PST   UTC
Description Unit Station From To Min. Max. Avg.
Water Temperature at Buoy °C Buoy 2023-01-26 08:03 2023-01-28 01:27 7.41 7.58 7.5
Weather: Air Temperature at Buoy °C Buoy 2023-01-26 07:32 2023-01-29 07:02 3.69 7.93 6.38
Wind Speed at Buoy m/s Buoy 2023-01-26 07:32 2023-01-29 07:02 0 5.21 1.67
Wind Direction at Buoy Deg. Buoy 2023-01-26 07:32 2023-01-29 07:02 0 358.3 201.76
Weather: Air Pressure at Buoy mb Buoy 2023-01-26 07:32 2023-01-29 07:02 1019.2 1039.52 1026.86
Weather: Relative Humidity at Buoy % Buoy 2023-01-26 07:32 2023-01-29 07:02 57.63 100 88.36
Weather: Solar Radiation at Buoy W/m² Buoy 2023-01-26 07:32 2023-01-29 07:02 0 285.4 29.17
Flow at Cedar River ft³/s Cedar River 2023-01-26 07:30 2023-01-29 07:15 534 799 642.4
Water Temperature at Cedar River °C Cedar River 2023-01-26 07:30 2023-01-29 07:15 5.9 7.4 6.78
Stage at 37A ft 37A 2023-01-26 08:00 2023-01-29 07:00 1.93 2.13 2.04
Flow at 37A ft³/s 37A 2023-01-26 08:00 2023-01-29 07:00 24.75 37 31.18
Flow at Sammish River ft³/s Sammamish River-51T 2023-01-26 08:00 2023-01-29 07:00 339 400 370.94
Water Temperature at Sammish River °C Sammamish River-51T 2023-01-26 08:00 2023-01-29 07:00 7.59 7.9 7.74
Stage at 34A ft 34a 2023-01-26 08:00 2023-01-29 07:00 1.06 1.59 1.19
Flow at 34A ft³/s 34a 2023-01-26 08:00 2023-01-29 07:00 3.5 14 5.55
Water Temperature at 34A °C 34a 2023-01-26 08:00 2023-01-29 07:00 6.58 8.19 7.72
Water Temperature at 35C °C 35C 2023-01-26 08:00 2023-01-29 07:00 5.96 7.53 6.96
Stage at COB-06C ft COB-06C 2023-01-26 08:00 2023-01-29 07:00 0.85 1.18 0.93
Flow at COB-06C ft³/s COB-06C 2023-01-26 08:00 2023-01-29 07:00 17 35.75 21.18
Stage at 27A ft 27a 2023-01-26 08:00 2023-01-29 07:00 3.36 4.02 3.54
Flow at 27A ft³/s 27a 2023-01-26 08:00 2023-01-29 07:00 5.45 34.5 11.7
Water Temperature at 27A °C 27a 2023-01-26 08:00 2023-01-29 07:00 6.92 7.94 7.64
Weather: Air Temperature at 27A °C 27a 2023-01-26 08:00 2023-01-29 07:00 2.23 7.94 6.33
Stage at 58A ft 58a 2023-01-26 08:00 2023-01-29 07:00 1.56 1.87 1.64
Flow at 58A ft³/s 58a 2023-01-26 08:00 2023-01-29 07:00 8.6 22.5 11.5
Water Temperature at 58A °C 58a 2023-01-26 08:00 2023-01-29 07:00 7.46 8.36 7.93
Weather: Air Temperature at 58A °C 58a 2023-01-26 08:00 2023-01-29 07:00 2.57 12.93 8.17
Stage at Lock ft Lock 2023-01-26 08:00 2023-01-29 06:00 19.97 20.05 20.01
Wind Speed at Tacoma m/s Tacoma Airport 2023-01-26 07:32 2023-01-29 07:02 0 5.21 1.67
Wind Direction at Tacoma Deg. Tacoma Airport 2023-01-26 07:32 2023-01-29 07:02 0 358.3 201.76
Red lines represent missing data